Time;durP1;ratioP1;P1;durP2;ratioP2;P2;SDS_P1;SDS_P2;PMS_P1;PMS_P2;Temp;Humidity;BMP_temperature;BMP_pressure;BME280_temperature;BME280_humidity;BME280_pressure;Samples;Min_cycle;Max_cycle;Signal;HPM_P1;HPM_P2
2022/01/01 00:00:00;;;;;;;;;;;12.10;99.90;;;;;;5058782;28;19924;-60
2022/01/01 00:02:27;;;;;;;;;;;12.20;99.90;;;;;;5045410;28;19928;-60
2022/01/01 00:05:05;;;;;;;;;;;12.20;99.90;;;;;;5058786;28;20395;-61
2022/01/01 00:07:33;;;;;;;;;;;12.20;99.90;;;;;;5026016;28;19921;-60
2022/01/01 00:10:01;;;;;;;;;;;12.20;99.90;;;;;;5043204;28;20279;-61
2022/01/01 00:12:29;;;;;;;;;;;12.30;99.90;;;;;;5057372;28;19928;-60
2022/01/01 00:14:56;;;;;;;;;;;12.20;99.90;;;;;;5051555;28;19921;-60
2022/01/01 00:17:24;;;;;;;;;;;12.30;99.90;;;;;;5045002;28;19927;-61
2022/01/01 00:19:51;;;;;;;;;;;12.30;99.90;;;;;;5046736;28;19943;-62
2022/01/01 00:22:19;;;;;;;;;;;12.30;99.90;;;;;;5063745;28;19928;-61
2022/01/01 00:24:46;;;;;;;;;;;12.30;99.90;;;;;;5060545;28;19924;-60
2022/01/01 00:27:13;;;;;;;;;;;12.20;99.90;;;;;;5045532;28;19925;-60
2022/01/01 00:29:41;;;;;;;;;;;12.30;99.90;;;;;;5044326;28;19924;-59
2022/01/01 00:32:08;;;;;;;;;;;12.30;99.90;;;;;;5065772;28;19920;-60
2022/01/01 00:34:36;;;;;;;;;;;12.30;99.90;;;;;;5067913;28;19924;-67
2022/01/01 00:37:05;;;;;;;;;;;12.30;99.90;;;;;;5051703;28;19925;-68
2022/01/01 00:39:32;;;;;;;;;;;12.30;99.90;;;;;;5066110;28;19921;-66
2022/01/01 00:42:00;;;;;;;;;;;12.30;99.90;;;;;;5052210;28;19920;-63
2022/01/01 00:44:30;;;;;;;;;;;12.30;99.90;;;;;;5070609;28;19920;-61
2022/01/01 00:46:57;;;;;;;;;;;12.30;99.90;;;;;;5071611;28;19927;-64
2022/01/01 00:49:25;;;;;;;;;;;12.30;99.90;;;;;;5069105;28;20372;-67
2022/01/01 00:51:52;;;;;;;;;;;12.30;99.90;;;;;;5053415;28;19920;-67
2022/01/01 00:54:20;;;;;;;;;;;12.30;99.90;;;;;;5053469;28;19920;-67
2022/01/01 00:56:47;;;;;;;;;;;12.30;99.90;;;;;;5071525;28;19986;-67
2022/01/01 00:59:15;;;;;;;;;;;12.30;99.90;;;;;;5071226;28;19973;-62
2022/01/01 01:01:42;;;;;;;;;;;12.30;99.90;;;;;;5035912;28;19921;-61
2022/01/01 01:04:10;;;;;;;;;;;12.30;99.90;;;;;;5079525;28;19927;-67
2022/01/01 01:06:38;;;;;;;;;;;12.30;99.90;;;;;;5053969;28;19921;-60
2022/01/01 01:09:05;;;;;;;;;;;12.30;99.90;;;;;;5043746;28;19927;-59
2022/01/01 01:11:41;;;;;;;;;;;12.30;99.90;;;;;;5067918;28;20081;-62
2022/01/01 01:14:18;;;;;;;;;;;12.30;99.90;;;;;;5033468;28;19927;-62
2022/01/01 01:16:46;;;;;;;;;;;12.20;99.90;;;;;;5052864;28;19924;-60
2022/01/01 01:19:14;;;;;;;;;;;12.20;99.90;;;;;;5055426;28;20398;-62
2022/01/01 01:21:43;;;;;;;;;;;12.20;99.90;;;;;;5050603;28;20403;-61
2022/01/01 01:24:12;;;;;;;;;;;12.20;99.90;;;;;;5069606;28;19924;-60
2022/01/01 01:26:46;;;;;;;;;;;12.20;99.90;;;;;;5070886;28;19920;-60
2022/01/01 01:29:13;;;;;;;;;;;12.20;99.90;;;;;;5070635;28;19924;-60
2022/01/01 01:31:41;;;;;;;;;;;12.10;99.90;;;;;;5070906;28;19920;-61
2022/01/01 01:34:08;;;;;;;;;;;12.10;99.90;;;;;;5050124;28;19920;-62
2022/01/01 01:36:40;;;;;;;;;;;12.10;99.90;;;;;;5070540;28;19935;-61
2022/01/01 01:39:07;;;;;;;;;;;12.10;99.90;;;;;;5086393;28;19924;-60
2022/01/01 01:41:35;;;;;;;;;;;12.10;99.90;;;;;;5069489;28;19927;-60
2022/01/01 01:44:21;;;;;;;;;;;12.10;99.90;;;;;;5070460;28;19924;-60
2022/01/01 01:46:49;;;;;;;;;;;12.10;99.90;;;;;;5052488;28;19921;-60
2022/01/01 01:49:16;;;;;;;;;;;12.20;99.90;;;;;;5055471;28;20584;-60
2022/01/01 01:51:44;;;;;;;;;;;12.20;99.90;;;;;;5050761;28;19928;-60
2022/01/01 01:54:13;;;;;;;;;;;12.20;99.90;;;;;;5068740;28;20400;-60
2022/01/01 01:56:41;;;;;;;;;;;12.20;99.90;;;;;;5069907;28;20740;-60
2022/01/01 01:59:08;;;;;;;;;;;12.20;99.90;;;;;;5069939;28;19920;-60
2022/01/01 02:01:36;;;;;;;;;;;12.20;99.90;;;;;;5052523;28;19925;-61
2022/01/01 02:04:04;;;;;;;;;;;12.20;99.90;;;;;;5069375;28;20375;-60
2022/01/01 02:06:32;;;;;;;;;;;12.30;99.90;;;;;;5070606;28;20677;-59
2022/01/01 02:09:00;;;;;;;;;;;12.20;99.90;;;;;;5069973;28;19920;-60
2022/01/01 02:11:27;;;;;;;;;;;12.20;99.90;;;;;;5069150;28;19924;-62
2022/01/01 02:16:32;;;;;;;;;;;12.30;99.90;;;;;;5070256;28;20319;-60
2022/01/01 02:19:00;;;;;;;;;;;12.30;99.90;;;;;;5067578;28;19928;-59
2022/01/01 02:21:29;;;;;;;;;;;12.30;99.90;;;;;;5069860;28;19921;-60
2022/01/01 02:23:59;;;;;;;;;;;12.30;99.90;;;;;;5069324;28;19925;-59
2022/01/01 02:26:28;;;;;;;;;;;12.30;99.90;;;;;;5051618;28;20407;-62
2022/01/01 02:28:56;;;;;;;;;;;12.30;99.90;;;;;;5069361;28;19920;-60
2022/01/01 02:31:23;;;;;;;;;;;12.30;99.90;;;;;;5045198;28;19928;-60
2022/01/01 02:33:51;;;;;;;;;;;12.40;99.90;;;;;;5052997;28;19928;-60
2022/01/01 02:36:28;;;;;;;;;;;12.40;99.90;;;;;;5052391;28;19927;-60
2022/01/01 02:38:56;;;;;;;;;;;12.40;99.90;;;;;;5047817;28;19920;-60
2022/01/01 02:41:23;;;;;;;;;;;12.40;99.90;;;;;;5072987;28;19932;-62
2022/01/01 02:43:51;;;;;;;;;;;12.30;99.90;;;;;;5072856;28;20402;-60
2022/01/01 02:46:18;;;;;;;;;;;12.30;99.90;;;;;;5071511;28;19927;-65
2022/01/01 02:48:46;;;;;;;;;;;12.30;99.90;;;;;;5072842;28;20364;-64
2022/01/01 02:51:13;;;;;;;;;;;12.30;99.90;;;;;;5054508;28;20331;-63
2022/01/01 02:53:41;;;;;;;;;;;12.30;99.90;;;;;;5072521;28;20293;-63
2022/01/01 02:56:08;;;;;;;;;;;12.30;99.90;;;;;;5071952;28;19928;-63
2022/01/01 02:58:35;;;;;;;;;;;12.30;99.90;;;;;;5072281;28;19921;-67
2022/01/01 03:01:03;;;;;;;;;;;12.40;99.90;;;;;;5072686;28;19921;-66
2022/01/01 03:03:31;;;;;;;;;;;12.40;99.90;;;;;;5072682;28;19927;-64
2022/01/01 03:05:58;;;;;;;;;;;12.40;99.90;;;;;;5072437;28;19926;-67
2022/01/01 03:08:25;;;;;;;;;;;12.40;99.90;;;;;;5072380;28;19920;-67
2022/01/01 03:10:53;;;;;;;;;;;12.40;99.90;;;;;;5054726;28;19951;-63
2022/01/01 03:13:20;;;;;;;;;;;12.40;99.90;;;;;;5054055;28;19927;-65
2022/01/01 03:15:48;;;;;;;;;;;12.40;99.90;;;;;;5072421;28;19920;-68
2022/01/01 03:18:15;;;;;;;;;;;12.40;99.90;;;;;;5072262;28;19920;-68
2022/01/01 03:20:44;;;;;;;;;;;12.40;99.90;;;;;;5054400;28;19920;-65
2022/01/01 03:23:11;;;;;;;;;;;12.40;99.90;;;;;;5071946;28;19920;-65
2022/01/01 03:25:39;;;;;;;;;;;12.40;99.90;;;;;;5072099;28;19920;-63
2022/01/01 03:28:06;;;;;;;;;;;12.30;99.90;;;;;;5054324;28;19928;-67
2022/01/01 03:30:34;;;;;;;;;;;12.40;99.90;;;;;;5072223;28;20295;-67
2022/01/01 03:33:01;;;;;;;;;;;12.30;99.90;;;;;;5071722;28;20391;-67
2022/01/01 03:35:29;;;;;;;;;;;12.30;99.90;;;;;;5072225;28;19927;-63
2022/01/01 03:37:56;;;;;;;;;;;12.40;99.90;;;;;;5054425;28;19920;-67
2022/01/01 03:40:24;;;;;;;;;;;12.40;99.90;;;;;;5072260;28;20291;-65
2022/01/01 03:42:51;;;;;;;;;;;12.30;99.90;;;;;;5072067;28;19928;-65
2022/01/01 03:45:18;;;;;;;;;;;12.30;99.90;;;;;;5071498;28;19943;-60
2022/01/01 03:47:46;;;;;;;;;;;12.40;99.90;;;;;;5054029;28;20291;-60
2022/01/01 03:50:13;;;;;;;;;;;12.30;99.90;;;;;;5071831;28;19924;-60
2022/01/01 03:52:42;;;;;;;;;;;12.30;99.90;;;;;;5071984;28;20391;-60
2022/01/01 03:55:10;;;;;;;;;;;12.30;99.90;;;;;;5072031;28;19920;-59
2022/01/01 03:57:38;;;;;;;;;;;12.30;99.90;;;;;;5054008;28;19927;-62
2022/01/01 04:00:07;;;;;;;;;;;12.20;99.90;;;;;;5036873;28;19927;-60
2022/01/01 04:02:40;;;;;;;;;;;12.30;99.90;;;;;;5071681;28;19927;-60
2022/01/01 04:05:07;;;;;;;;;;;12.30;99.90;;;;;;5075347;28;19920;-62
2022/01/01 04:07:35;;;;;;;;;;;12.20;99.90;;;;;;5075639;28;20375;-59
2022/01/01 04:10:02;;;;;;;;;;;12.20;99.90;;;;;;5075836;28;19920;-60
2022/01/01 04:12:30;;;;;;;;;;;12.20;99.90;;;;;;5075747;28;19928;-60
2022/01/01 04:15:00;;;;;;;;;;;12.20;99.90;;;;;;5075930;28;20327;-60
2022/01/01 04:17:27;;;;;;;;;;;12.20;99.90;;;;;;5075806;28;19932;-60
2022/01/01 04:19:55;;;;;;;;;;;12.20;99.90;;;;;;5075598;28;19928;-61
2022/01/01 04:22:23;;;;;;;;;;;12.20;99.90;;;;;;5075451;28;19920;-61
2022/01/01 04:24:50;;;;;;;;;;;12.20;99.90;;;;;;5075480;28;19920;-60
2022/01/01 04:27:17;;;;;;;;;;;12.20;99.90;;;;;;5057555;28;19928;-59
2022/01/01 04:29:45;;;;;;;;;;;12.30;99.90;;;;;;5075100;28;19921;-59
2022/01/01 04:32:14;;;;;;;;;;;12.30;99.90;;;;;;5056936;28;20384;-60
2022/01/01 04:34:41;;;;;;;;;;;12.30;99.90;;;;;;5075555;28;19920;-59
2022/01/01 04:37:12;;;;;;;;;;;12.30;99.90;;;;;;5075367;28;19920;-60
2022/01/01 04:39:41;;;;;;;;;;;12.30;99.90;;;;;;5057378;28;19932;-59
2022/01/01 04:42:08;;;;;;;;;;;12.30;99.90;;;;;;5075314;28;19928;-60
2022/01/01 04:44:36;;;;;;;;;;;12.30;99.90;;;;;;5075120;28;19921;-59
2022/01/01 04:47:03;;;;;;;;;;;12.20;99.90;;;;;;5075222;28;19926;-59
2022/01/01 04:49:31;;;;;;;;;;;12.30;99.90;;;;;;5075078;28;19921;-59
2022/01/01 04:51:59;;;;;;;;;;;12.30;99.90;;;;;;5056805;28;20351;-62
2022/01/01 04:54:27;;;;;;;;;;;12.20;99.90;;;;;;5090163;28;19931;-60
2022/01/01 04:56:55;;;;;;;;;;;12.20;99.90;;;;;;5074962;28;20095;-59
2022/01/01 04:59:22;;;;;;;;;;;12.20;99.90;;;;;;5074951;28;19928;-58
2022/01/01 05:01:50;;;;;;;;;;;12.20;99.90;;;;;;5075112;28;19927;-59
2022/01/01 05:04:18;;;;;;;;;;;12.20;99.90;;;;;;5074957;28;19920;-60
2022/01/01 05:06:49;;;;;;;;;;;12.20;99.90;;;;;;5057278;28;20368;-59
2022/01/01 05:09:16;;;;;;;;;;;12.20;99.90;;;;;;5074778;28;20371;-60
2022/01/01 05:11:44;;;;;;;;;;;12.20;99.90;;;;;;5074650;28;19920;-59
2022/01/01 05:14:12;;;;;;;;;;;12.20;99.90;;;;;;5074806;28;19995;-61
2022/01/01 05:16:40;;;;;;;;;;;12.10;99.90;;;;;;5073514;28;19927;-59
2022/01/01 05:19:07;;;;;;;;;;;12.10;99.90;;;;;;5056429;28;19921;-61
2022/01/01 05:21:36;;;;;;;;;;;12.10;99.90;;;;;;5073622;28;19920;-63
2022/01/01 05:24:04;;;;;;;;;;;12.10;99.90;;;;;;5074448;28;19920;-63
2022/01/01 05:26:32;;;;;;;;;;;12.00;99.90;;;;;;5074284;28;19920;-62
2022/01/01 05:29:00;;;;;;;;;;;12.00;99.90;;;;;;5074481;28;19921;-64
2022/01/01 05:31:27;;;;;;;;;;;11.90;99.90;;;;;;5074423;28;20306;-60
2022/01/01 05:33:55;;;;;;;;;;;11.90;99.90;;;;;;5056611;28;19927;-60
2022/01/01 05:36:23;;;;;;;;;;;11.90;99.90;;;;;;5073976;28;19920;-60
2022/01/01 05:38:51;;;;;;;;;;;11.90;99.90;;;;;;5089896;28;19932;-59
2022/01/01 05:41:18;;;;;;;;;;;11.80;99.90;;;;;;5074269;28;19920;-60
2022/01/01 05:43:46;;;;;;;;;;;11.80;99.90;;;;;;5074137;28;19927;-59
2022/01/01 05:46:13;;;;;;;;;;;11.80;99.90;;;;;;5073833;28;19926;-60
2022/01/01 05:48:41;;;;;;;;;;;11.70;99.90;;;;;;5070061;28;20287;-59
2022/01/01 05:51:08;;;;;;;;;;;11.70;99.90;;;;;;5050847;28;19920;-60
2022/01/01 05:53:36;;;;;;;;;;;11.70;99.90;;;;;;5068191;28;19920;-59
2022/01/01 05:56:03;;;;;;;;;;;11.70;99.90;;;;;;5070510;28;19920;-60
2022/01/01 05:58:32;;;;;;;;;;;11.60;99.90;;;;;;5070277;28;19924;-60
2022/01/01 06:00:59;;;;;;;;;;;11.60;99.90;;;;;;5070467;28;20256;-60
2022/01/01 06:03:27;;;;;;;;;;;11.60;99.90;;;;;;5034103;28;19928;-66
2022/01/01 06:05:54;;;;;;;;;;;11.60;99.90;;;;;;5047501;28;20365;-68
2022/01/01 06:08:22;;;;;;;;;;;11.60;99.90;;;;;;5057892;28;19920;-64
2022/01/01 06:10:49;;;;;;;;;;;11.60;99.90;;;;;;5047515;28;19928;-68
2022/01/01 06:13:16;;;;;;;;;;;11.60;99.90;;;;;;5058929;28;19920;-66
2022/01/01 06:15:44;;;;;;;;;;;11.60;99.90;;;;;;5067021;28;19920;-61
2022/01/01 06:18:12;;;;;;;;;;;11.60;99.90;;;;;;5059963;28;19935;-66
2022/01/01 06:20:39;;;;;;;;;;;11.60;99.90;;;;;;5047200;28;19920;-68
2022/01/01 06:23:07;;;;;;;;;;;11.60;99.90;;;;;;5061370;28;19925;-66
2022/01/01 06:25:35;;;;;;;;;;;11.60;99.90;;;;;;5052369;28;19921;-68
2022/01/01 06:28:03;;;;;;;;;;;11.60;99.90;;;;;;5069264;28;20173;-68
2022/01/01 06:30:34;;;;;;;;;;;11.60;99.90;;;;;;5070087;28;19921;-69
2022/01/01 06:33:09;;;;;;;;;;;11.60;99.90;;;;;;5068964;28;20275;-59
2022/01/01 06:35:38;;;;;;;;;;;11.60;99.90;;;;;;5052062;28;19927;-60
2022/01/01 06:38:05;;;;;;;;;;;11.60;99.90;;;;;;5069296;28;19920;-60
2022/01/01 06:40:33;;;;;;;;;;;11.60;99.90;;;;;;5034764;28;19927;-60
2022/01/01 06:43:00;;;;;;;;;;;11.60;99.90;;;;;;5069260;28;19920;-59
2022/01/01 06:45:28;;;;;;;;;;;11.60;99.90;;;;;;5069965;28;19928;-60
2022/01/01 06:47:56;;;;;;;;;;;11.60;99.90;;;;;;5066318;28;20295;-59
2022/01/01 06:50:23;;;;;;;;;;;11.60;99.90;;;;;;5031599;28;19920;-59
2022/01/01 06:52:51;;;;;;;;;;;11.60;99.90;;;;;;5057989;28;19924;-58
2022/01/01 06:55:19;;;;;;;;;;;11.60;99.90;;;;;;5068761;28;20256;-60
2022/01/01 06:57:46;;;;;;;;;;;11.60;99.90;;;;;;5084641;28;19921;-59
2022/01/01 07:00:14;;;;;;;;;;;11.60;99.90;;;;;;5068918;28;20382;-59
2022/01/01 07:02:43;;;;;;;;;;;11.60;99.90;;;;;;5065638;28;19925;-61
2022/01/01 07:05:13;;;;;;;;;;;11.60;99.90;;;;;;5046309;28;20647;-64
2022/01/01 07:07:41;;;;;;;;;;;11.60;99.90;;;;;;5053150;28;19927;-62
2022/01/01 07:10:10;;;;;;;;;;;11.60;99.90;;;;;;5065784;28;19925;-65
2022/01/01 07:12:38;;;;;;;;;;;11.60;99.90;;;;;;5065379;28;19920;-64
2022/01/01 07:15:06;;;;;;;;;;;11.60;99.90;;;;;;5065751;28;20292;-65
2022/01/01 07:17:34;;;;;;;;;;;11.60;99.90;;;;;;5047710;28;19922;-65
2022/01/01 07:20:02;;;;;;;;;;;11.60;99.90;;;;;;5056673;28;19931;-63
2022/01/01 07:22:29;;;;;;;;;;;11.50;99.90;;;;;;5050873;28;19921;-64
2022/01/01 07:25:03;;;;;;;;;;;11.50;99.90;;;;;;5068884;28;19920;-61
2022/01/01 07:27:30;;;;;;;;;;;11.50;99.90;;;;;;5068742;28;19931;-60
2022/01/01 07:29:58;;;;;;;;;;;11.60;99.90;;;;;;5068742;28;20368;-63
2022/01/01 07:32:25;;;;;;;;;;;11.50;99.90;;;;;;5050983;28;19920;-60
2022/01/01 07:34:53;;;;;;;;;;;11.60;99.90;;;;;;5053035;28;19929;-59
2022/01/01 07:37:20;;;;;;;;;;;11.60;99.90;;;;;;5050650;28;20375;-61
2022/01/01 07:39:48;;;;;;;;;;;11.60;99.90;;;;;;5064967;28;19931;-60
2022/01/01 07:42:15;;;;;;;;;;;11.60;99.90;;;;;;5068431;28;19921;-60
2022/01/01 07:44:43;;;;;;;;;;;11.60;99.90;;;;;;5050761;28;20129;-59
2022/01/01 07:47:10;;;;;;;;;;;11.60;99.90;;;;;;5068504;28;19920;-59
2022/01/01 07:49:38;;;;;;;;;;;11.60;99.90;;;;;;5067199;28;20090;-59
2022/01/01 07:52:05;;;;;;;;;;;11.50;99.90;;;;;;5065245;28;19924;-59
2022/01/01 07:54:33;;;;;;;;;;;11.50;99.90;;;;;;5065303;28;19928;-60
2022/01/01 07:57:00;;;;;;;;;;;11.50;99.90;;;;;;5067368;28;19920;-60
2022/01/01 07:59:28;;;;;;;;;;;11.50;99.90;;;;;;5068072;28;19925;-59
2022/01/01 08:01:55;;;;;;;;;;;11.50;99.90;;;;;;5064581;28;20411;-59
2022/01/01 08:04:23;;;;;;;;;;;11.50;99.90;;;;;;5054300;28;20300;-59
2022/01/01 08:06:51;;;;;;;;;;;11.50;99.90;;;;;;5038839;28;19920;-62
2022/01/01 08:09:18;;;;;;;;;;;11.50;99.90;;;;;;5068423;28;20297;-63
2022/01/01 08:11:46;;;;;;;;;;;11.60;99.90;;;;;;5069224;28;19920;-63
2022/01/01 08:14:13;;;;;;;;;;;11.60;99.90;;;;;;5067673;28;20063;-66
2022/01/01 08:17:01;;;;;;;;;;;11.50;99.90;;;;;;5046474;28;19928;-66
2022/01/01 08:19:29;;;;;;;;;;;11.50;99.90;;;;;;5053827;28;19925;-65
2022/01/01 08:21:57;;;;;;;;;;;11.50;99.90;;;;;;5051563;28;19946;-66
2022/01/01 08:24:25;;;;;;;;;;;11.60;99.90;;;;;;5068015;28;19920;-62
2022/01/01 08:26:52;;;;;;;;;;;11.60;99.90;;;;;;5068205;28;19925;-66
2022/01/01 08:29:20;;;;;;;;;;;11.60;99.90;;;;;;5068055;28;19931;-65
2022/01/01 08:31:50;;;;;;;;;;;11.60;99.90;;;;;;5049884;28;19931;-67
2022/01/01 08:34:19;;;;;;;;;;;11.50;99.90;;;;;;5058600;28;20288;-67
2022/01/01 08:36:47;;;;;;;;;;;11.50;99.90;;;;;;5063154;28;19927;-64
2022/01/01 08:39:17;;;;;;;;;;;11.50;99.90;;;;;;5065630;28;19920;-63
2022/01/01 08:41:45;;;;;;;;;;;11.50;99.90;;;;;;5050277;28;19928;-67
2022/01/01 08:44:13;;;;;;;;;;;11.50;99.90;;;;;;5067199;28;19951;-67
2022/01/01 08:46:41;;;;;;;;;;;11.50;99.90;;;;;;5065314;28;19927;-67
2022/01/01 08:49:09;;;;;;;;;;;11.50;99.90;;;;;;5059226;28;19921;-68
2022/01/01 08:51:37;;;;;;;;;;;11.60;99.90;;;;;;5054784;28;20371;-68
2022/01/01 08:54:05;;;;;;;;;;;11.60;99.90;;;;;;5070606;28;19921;-67
2022/01/01 08:56:33;;;;;;;;;;;11.60;99.90;;;;;;5071130;28;19927;-68
2022/01/01 08:59:00;;;;;;;;;;;11.50;99.90;;;;;;5053382;28;19921;-65
2022/01/01 09:01:28;;;;;;;;;;;11.60;99.90;;;;;;5071114;28;20295;-67
2022/01/01 09:03:55;;;;;;;;;;;11.60;99.90;;;;;;5068440;28;20295;-68
2022/01/01 09:06:23;;;;;;;;;;;11.60;99.90;;;;;;5016843;28;20387;-64
2022/01/01 09:08:50;;;;;;;;;;;11.60;99.90;;;;;;5065817;28;19920;-66
2022/01/01 09:11:18;;;;;;;;;;;11.60;99.90;;;;;;5081890;28;19928;-59
2022/01/01 09:13:45;;;;;;;;;;;11.70;99.90;;;;;;5070840;28;19920;-59
2022/01/01 09:16:15;;;;;;;;;;;11.70;99.90;;;;;;5071160;28;19921;-59
2022/01/01 09:18:44;;;;;;;;;;;11.70;99.90;;;;;;5051592;28;20314;-59
2022/01/01 09:21:13;;;;;;;;;;;11.70;99.90;;;;;;5053170;28;19920;-59
2022/01/01 09:23:40;;;;;;;;;;;11.70;99.90;;;;;;5052897;28;19932;-64
2022/01/01 09:26:08;;;;;;;;;;;11.70;99.90;;;;;;5071215;28;19920;-59
2022/01/01 09:28:35;;;;;;;;;;;11.70;99.90;;;;;;5070617;28;20298;-59
2022/01/01 09:31:03;;;;;;;;;;;11.70;99.90;;;;;;5053205;28;19958;-59
2022/01/01 09:33:31;;;;;;;;;;;11.70;99.90;;;;;;5070596;28;20360;-59
2022/01/01 09:36:00;;;;;;;;;;;11.70;99.90;;;;;;5070937;28;20287;-60
2022/01/01 09:38:28;;;;;;;;;;;11.70;99.90;;;;;;5052585;28;20171;-59
2022/01/01 09:40:56;;;;;;;;;;;11.70;99.90;;;;;;5052410;28;19924;-59
2022/01/01 09:43:24;;;;;;;;;;;11.70;99.90;;;;;;5070282;28;19920;-59
2022/01/01 09:45:53;;;;;;;;;;;11.70;99.90;;;;;;5052777;28;19925;-60
2022/01/01 09:48:21;;;;;;;;;;;11.70;99.90;;;;;;5052434;28;20391;-59
2022/01/01 09:50:49;;;;;;;;;;;11.80;99.90;;;;;;5070527;28;19920;-59
2022/01/01 09:53:20;;;;;;;;;;;11.70;99.90;;;;;;5069945;28;19928;-63
2022/01/01 09:55:47;;;;;;;;;;;11.80;99.90;;;;;;5070362;28;19920;-59
2022/01/01 09:58:15;;;;;;;;;;;11.90;99.90;;;;;;5070160;28;19920;-60
2022/01/01 10:00:42;;;;;;;;;;;11.90;99.90;;;;;;5052268;28;20392;-59
2022/01/01 10:03:13;;;;;;;;;;;12.00;99.90;;;;;;5069304;28;20410;-61
2022/01/01 10:05:55;;;;;;;;;;;12.10;99.90;;;;;;5070404;28;19920;-60
2022/01/01 10:08:24;;;;;;;;;;;12.10;99.90;;;;;;5070241;28;19927;-60
2022/01/01 10:10:52;;;;;;;;;;;12.20;99.90;;;;;;5070542;28;19924;-59
2022/01/01 10:13:26;;;;;;;;;;;12.20;99.90;;;;;;5069578;28;19920;-60
2022/01/01 10:15:54;;;;;;;;;;;12.30;99.90;;;;;;5069457;28;20407;-61
2022/01/01 10:18:26;;;;;;;;;;;12.30;99.90;;;;;;5070123;28;19920;-59
2022/01/01 10:20:58;;;;;;;;;;;12.30;99.90;;;;;;5070184;28;19924;-59
2022/01/01 10:23:28;;;;;;;;;;;12.30;99.90;;;;;;5064416;28;19920;-63
2022/01/01 10:28:58;;;;;;;;;;;12.40;99.90;;;;;;5069864;28;19927;-67
2022/01/01 10:31:26;;;;;;;;;;;12.40;99.90;;;;;;5052156;28;20291;-65
2022/01/01 10:33:54;;;;;;;;;;;12.40;99.90;;;;;;5069193;28;19927;-63
2022/01/01 10:36:22;;;;;;;;;;;12.40;99.90;;;;;;5069434;28;19927;-62
2022/01/01 10:38:49;;;;;;;;;;;12.40;99.90;;;;;;5051635;28;19927;-62
2022/01/01 10:41:18;;;;;;;;;;;12.50;99.90;;;;;;5051773;28;20295;-66
2022/01/01 10:43:46;;;;;;;;;;;12.50;99.90;;;;;;5069067;28;19927;-63
2022/01/01 10:46:14;;;;;;;;;;;12.50;99.90;;;;;;5051401;28;20030;-64
2022/01/01 10:48:56;;;;;;;;;;;12.50;99.90;;;;;;5051235;28;19927;-60
2022/01/01 10:51:24;;;;;;;;;;;12.50;99.90;;;;;;5051195;28;20335;-62
2022/01/01 10:54:02;;;;;;;;;;;12.60;99.90;;;;;;5068902;28;19920;-61
2022/01/01 10:56:37;;;;;;;;;;;12.60;99.90;;;;;;5068960;28;19921;-62
2022/01/01 10:59:05;;;;;;;;;;;12.70;99.90;;;;;;5068874;28;19927;-59
2022/01/01 11:01:34;;;;;;;;;;;12.70;99.90;;;;;;5062304;28;19920;-60
2022/01/01 11:04:01;;;;;;;;;;;12.80;99.90;;;;;;5047811;28;19995;-59
2022/01/01 11:06:32;;;;;;;;;;;12.80;99.90;;;;;;5047232;28;19928;-60
2022/01/01 11:09:01;;;;;;;;;;;12.80;99.90;;;;;;5064296;28;20364;-64
2022/01/01 11:11:31;;;;;;;;;;;12.80;99.90;;;;;;5068801;28;20391;-64
2022/01/01 11:13:59;;;;;;;;;;;12.80;99.90;;;;;;5051013;28;19925;-63
2022/01/01 11:16:27;;;;;;;;;;;12.90;99.90;;;;;;5067175;28;20376;-60
2022/01/01 11:18:54;;;;;;;;;;;12.90;99.90;;;;;;5068336;28;19920;-66
2022/01/01 11:21:22;;;;;;;;;;;12.90;99.90;;;;;;5034344;28;19920;-66
2022/01/01 11:23:50;;;;;;;;;;;12.90;99.90;;;;;;5050569;28;19921;-65
2022/01/01 11:26:18;;;;;;;;;;;13.00;99.90;;;;;;5051286;28;19921;-66
2022/01/01 11:28:46;;;;;;;;;;;13.00;99.90;;;;;;5058626;28;20391;-67
2022/01/01 11:31:15;;;;;;;;;;;13.00;99.90;;;;;;5048052;28;19936;-67
2022/01/01 11:33:45;;;;;;;;;;;13.00;99.90;;;;;;5059344;28;19927;-68
2022/01/01 11:36:22;;;;;;;;;;;13.10;99.90;;;;;;5065035;28;20648;-68
2022/01/01 11:38:51;;;;;;;;;;;13.10;99.90;;;;;;5064702;28;19920;-69
2022/01/01 11:41:19;;;;;;;;;;;13.10;99.90;;;;;;5065297;28;20379;-66
2022/01/01 11:43:49;;;;;;;;;;;13.10;99.90;;;;;;5063903;28;19931;-69
2022/01/01 11:46:27;;;;;;;;;;;13.20;99.90;;;;;;5060626;28;19925;-68
2022/01/01 11:48:55;;;;;;;;;;;13.20;99.90;;;;;;5045003;28;19928;-68
2022/01/01 11:51:26;;;;;;;;;;;13.20;99.90;;;;;;5053103;28;19925;-68
2022/01/01 11:54:13;;;;;;;;;;;13.20;99.90;;;;;;5064808;28;19924;-60
2022/01/01 11:56:46;;;;;;;;;;;13.20;99.90;;;;;;5064019;28;20434;-60
2022/01/01 11:59:20;;;;;;;;;;;13.30;99.90;;;;;;5068017;28;19928;-61
2022/01/01 12:01:48;;;;;;;;;;;13.20;99.90;;;;;;5067144;28;20367;-61
2022/01/01 12:04:35;;;;;;;;;;;13.30;99.90;;;;;;5063807;28;20379;-63
2022/01/01 12:07:12;;;;;;;;;;;13.40;99.90;;;;;;5045944;28;20296;-63
2022/01/01 12:09:58;;;;;;;;;;;13.40;99.90;;;;;;5030343;28;19928;-61
2022/01/01 12:12:45;;;;;;;;;;;13.40;99.90;;;;;;5050764;28;19931;-62
2022/01/01 12:15:20;;;;;;;;;;;13.40;99.90;;;;;;5068491;28;19920;-67
2022/01/01 12:17:53;;;;;;;;;;;13.50;99.90;;;;;;5048737;28;19928;-62
2022/01/01 12:20:22;;;;;;;;;;;13.50;99.90;;;;;;5045531;28;19928;-64
2022/01/01 12:22:50;;;;;;;;;;;13.50;99.90;;;;;;5053284;28;20306;-59
2022/01/01 12:25:23;;;;;;;;;;;13.50;99.90;;;;;;5051148;28;19927;-60
2022/01/01 12:27:53;;;;;;;;;;;13.50;99.90;;;;;;5071359;28;19920;-60
2022/01/01 12:30:31;;;;;;;;;;;13.50;99.90;;;;;;5071513;28;19927;-60
2022/01/01 12:32:59;;;;;;;;;;;13.50;99.90;;;;;;5071338;28;19920;-60
2022/01/01 12:35:41;;;;;;;;;;;13.40;99.90;;;;;;5068585;28;20443;-63
2022/01/01 12:38:10;;;;;;;;;;;13.50;99.90;;;;;;5059865;28;19928;-60
2022/01/01 12:40:56;;;;;;;;;;;13.50;99.90;;;;;;5071978;28;20287;-61
2022/01/01 12:43:24;;;;;;;;;;;13.50;99.90;;;;;;5071530;28;19924;-64
2022/01/01 12:45:52;;;;;;;;;;;13.60;99.90;;;;;;5071790;28;19935;-60
2022/01/01 12:48:27;;;;;;;;;;;13.60;99.90;;;;;;5071554;28;19944;-65
2022/01/01 12:50:56;;;;;;;;;;;13.60;99.90;;;;;;5065305;28;20315;-60
2022/01/01 12:53:25;;;;;;;;;;;13.80;99.90;;;;;;5044250;28;19943;-62
2022/01/01 12:56:06;;;;;;;;;;;14.10;99.90;;;;;;5071475;28;19927;-60
2022/01/01 12:58:35;;;;;;;;;;;14.30;99.90;;;;;;5071341;28;19920;-61
2022/01/01 13:01:22;;;;;;;;;;;14.50;99.90;;;;;;5053749;28;19924;-63
2022/01/01 13:03:55;;;;;;;;;;;14.60;99.90;;;;;;5071270;28;19924;-61
2022/01/01 13:06:26;;;;;;;;;;;14.90;99.90;;;;;;5062361;28;19928;-60
2022/01/01 13:08:54;;;;;;;;;;;15.00;99.90;;;;;;5065220;28;19928;-61
2022/01/01 13:11:22;;;;;;;;;;;14.90;99.90;;;;;;5070280;28;20375;-61
2022/01/01 13:13:49;;;;;;;;;;;14.80;99.90;;;;;;5053103;28;20303;-62
2022/01/01 13:16:17;;;;;;;;;;;15.00;99.90;;;;;;5071366;28;19920;-61
2022/01/01 13:18:45;;;;;;;;;;;15.20;99.90;;;;;;5071484;28;19921;-61
2022/01/01 13:21:12;;;;;;;;;;;15.40;99.90;;;;;;5064101;28;20312;-61
2022/01/01 13:23:40;;;;;;;;;;;15.70;99.90;;;;;;5064068;28;20237;-61
2022/01/01 13:26:07;;;;;;;;;;;16.00;99.90;;;;;;5071127;28;19921;-63
2022/01/01 13:28:35;;;;;;;;;;;16.30;99.90;;;;;;5052973;28;19920;-65
2022/01/01 13:31:05;;;;;;;;;;;16.50;99.90;;;;;;5071059;28;19927;-61
2022/01/01 13:33:33;;;;;;;;;;;16.80;99.90;;;;;;5070936;28;19943;-61
2022/01/01 13:36:05;;;;;;;;;;;17.00;99.90;;;;;;5065384;28;19921;-63
2022/01/01 13:38:33;;;;;;;;;;;17.00;99.90;;;;;;5062121;28;19928;-61
2022/01/01 13:41:03;;;;;;;;;;;17.10;99.90;;;;;;5070942;28;19939;-63
2022/01/01 13:43:34;;;;;;;;;;;17.10;99.90;;;;;;5070560;28;19920;-61
2022/01/01 13:46:09;;;;;;;;;;;17.10;99.90;;;;;;5070808;28;19942;-63
2022/01/01 13:48:43;;;;;;;;;;;17.00;99.90;;;;;;5053016;28;19924;-61
2022/01/01 13:51:11;;;;;;;;;;;17.10;99.90;;;;;;5066491;28;19936;-61
2022/01/01 13:53:40;;;;;;;;;;;17.00;99.90;;;;;;5063422;28;19920;-61
2022/01/01 13:56:12;;;;;;;;;;;17.10;99.90;;;;;;5070390;28;19935;-61
2022/01/01 13:58:42;;;;;;;;;;;17.00;99.90;;;;;;5052233;28;19920;-62
2022/01/01 14:01:12;;;;;;;;;;;17.00;99.90;;;;;;5052751;28;19921;-62
2022/01/01 14:03:41;;;;;;;;;;;17.00;99.90;;;;;;5070042;28;19921;-60
2022/01/01 14:06:10;;;;;;;;;;;16.90;99.90;;;;;;5067390;28;19925;-61
2022/01/01 14:08:37;;;;;;;;;;;16.90;99.90;;;;;;5061667;28;19927;-62
2022/01/01 14:11:34;;;;;;;;;;;16.70;99.90;;;;;;5070291;28;19931;-63
2022/01/01 14:14:03;;;;;;;;;;;16.40;99.90;;;;;;5069870;28;19929;-61
2022/01/01 14:16:30;;;;;;;;;;;15.90;99.90;;;;;;5019460;28;20407;-60
2022/01/01 14:18:59;;;;;;;;;;;15.50;99.90;;;;;;5069956;28;20373;-61
2022/01/01 14:21:26;;;;;;;;;;;15.20;99.90;;;;;;5065711;28;19928;-60
2022/01/01 14:24:01;;;;;;;;;;;14.90;99.90;;;;;;5065010;28;19927;-61
2022/01/01 14:26:29;;;;;;;;;;;14.80;99.90;;;;;;5052307;28;19921;-61
2022/01/01 14:28:58;;;;;;;;;;;14.50;99.90;;;;;;5069887;28;19924;-61
2022/01/01 14:31:26;;;;;;;;;;;14.40;99.90;;;;;;5070254;28;19927;-61